createdAt,value
2023-02-17T00:01:25.412Z,3.70
2023-02-17T00:03:53.375Z,3.70
2023-02-17T00:06:23.962Z,3.70
2023-02-17T00:08:51.637Z,3.70
2023-02-17T00:11:19.296Z,3.70
2023-02-17T00:13:46.971Z,3.70
2023-02-17T00:16:19.607Z,3.70
2023-02-17T00:18:47.704Z,3.70
2023-02-17T00:21:20.166Z,3.60
2023-02-17T00:23:48.716Z,3.60
2023-02-17T00:26:16.743Z,3.50
2023-02-17T00:28:44.609Z,3.50
2023-02-17T00:31:23.814Z,3.50
2023-02-17T00:33:54.265Z,3.50
2023-02-17T00:36:21.210Z,3.60
2023-02-17T00:38:49.182Z,3.60
2023-02-17T00:41:17.631Z,3.60
2023-02-17T00:43:45.092Z,3.50
2023-02-17T00:46:12.086Z,3.50
2023-02-17T00:48:39.146Z,3.50
2023-02-17T00:51:06.516Z,3.50
2023-02-17T00:53:33.471Z,3.50
2023-02-17T00:56:00.437Z,3.40
2023-02-17T00:58:27.612Z,3.40
2023-02-17T01:00:58.250Z,3.30
2023-02-17T01:03:26.584Z,3.30
2023-02-17T01:05:54.589Z,3.30
2023-02-17T01:08:22.678Z,3.30
2023-02-17T01:10:50.567Z,3.30
2023-02-17T01:13:19.016Z,3.30
2023-02-17T01:15:48.993Z,3.20
2023-02-17T01:18:17.325Z,3.20
2023-02-17T01:20:44.416Z,3.20
2023-02-17T01:23:12.669Z,3.10
2023-02-17T01:25:41.751Z,3.10
2023-02-17T01:28:09.800Z,3.10
2023-02-17T01:30:36.817Z,3.10
2023-02-17T01:33:03.798Z,3.10
2023-02-17T01:35:30.708Z,3.10
2023-02-17T01:37:57.717Z,3.10
2023-02-17T01:40:24.709Z,3.10
2023-02-17T01:42:51.657Z,3.00
2023-02-17T01:45:18.662Z,3.00
2023-02-17T01:47:59.272Z,3.00
2023-02-17T01:50:41.919Z,3.10
2023-02-17T01:53:12.328Z,3.00
2023-02-17T01:55:41.690Z,3.00
2023-02-17T01:58:11.843Z,3.00
2023-02-17T02:00:39.625Z,3.10
2023-02-17T02:03:10.580Z,3.10
2023-02-17T02:05:39.789Z,3.00
2023-02-17T02:08:07.496Z,3.00
2023-02-17T02:10:34.763Z,3.10
2023-02-17T02:13:01.709Z,3.20
2023-02-17T02:15:38.843Z,3.20
2023-02-17T02:18:41.608Z,3.20
2023-02-17T02:21:20.635Z,3.30
2023-02-17T02:23:56.313Z,3.30
2023-02-17T02:26:44.503Z,3.40
2023-02-17T02:29:30.146Z,3.40
2023-02-17T02:32:24.778Z,3.50
2023-02-17T02:35:22.622Z,3.50
2023-02-17T02:38:20.821Z,3.60
2023-02-17T02:40:54.194Z,3.60
2023-02-17T02:43:22.452Z,3.60
2023-02-17T02:45:49.429Z,3.70
2023-02-17T02:48:16.504Z,3.70
2023-02-17T02:51:31.013Z,3.70
2023-02-17T02:54:16.236Z,3.70
2023-02-17T02:56:49.037Z,3.70
2023-02-17T02:59:34.025Z,3.60
2023-02-17T03:02:16.021Z,3.60
2023-02-17T03:04:51.853Z,3.60
2023-02-17T03:07:28.518Z,3.70
2023-02-17T03:09:59.316Z,3.70
2023-02-17T03:12:27.358Z,3.70
2023-02-17T03:15:00.158Z,3.70
2023-02-17T03:17:30.070Z,3.70
2023-02-17T03:19:57.734Z,3.80
2023-02-17T03:22:36.626Z,3.80
2023-02-17T03:25:04.200Z,3.80
2023-02-17T03:27:31.138Z,3.80
2023-02-17T03:29:58.237Z,3.90
2023-02-17T03:32:25.514Z,3.90
2023-02-17T03:34:52.485Z,3.90
2023-02-17T03:37:19.532Z,3.90
2023-02-17T03:39:46.506Z,3.90
2023-02-17T03:42:13.429Z,4.00
2023-02-17T03:44:40.411Z,4.00
2023-02-17T03:47:07.727Z,4.00
2023-02-17T03:49:35.008Z,4.10
2023-02-17T03:52:02.171Z,4.10
2023-02-17T03:54:29.114Z,4.10
2023-02-17T03:56:57.223Z,4.10
2023-02-17T03:59:24.176Z,4.10
2023-02-17T04:01:51.127Z,4.10
2023-02-17T04:04:19.348Z,4.10
2023-02-17T04:06:46.691Z,4.10
2023-02-17T04:09:13.678Z,4.20
2023-02-17T04:11:40.611Z,4.20
2023-02-17T04:14:07.557Z,4.20
2023-02-17T04:16:34.616Z,4.20
2023-02-17T04:19:01.609Z,4.20
2023-02-17T04:21:28.519Z,4.20
2023-02-17T04:23:55.436Z,4.30
2023-02-17T04:26:22.388Z,4.20
2023-02-17T04:28:49.381Z,4.20
2023-02-17T04:31:16.429Z,4.30
2023-02-17T04:33:43.399Z,4.30
2023-02-17T04:36:11.519Z,4.30
2023-02-17T04:38:39.419Z,4.30
2023-02-17T04:41:07.346Z,4.30
2023-02-17T04:43:34.638Z,4.40
2023-02-17T04:46:01.751Z,4.40
2023-02-17T04:48:28.816Z,4.40
2023-02-17T04:50:55.760Z,4.40
2023-02-17T04:53:22.919Z,4.40
2023-02-17T04:55:52.298Z,4.50
2023-02-17T04:58:20.768Z,4.50
2023-02-17T05:00:49.398Z,4.50
2023-02-17T05:03:17.496Z,4.60
2023-02-17T05:05:44.616Z,4.60
2023-02-17T05:08:11.682Z,4.60
2023-02-17T05:10:38.992Z,4.60
2023-02-17T05:13:06.085Z,4.60
2023-02-17T05:15:34.879Z,4.60
2023-02-17T05:18:02.318Z,4.60
2023-02-17T05:20:29.465Z,4.70
2023-02-17T05:22:56.472Z,4.70
2023-02-17T05:25:23.425Z,4.70
2023-02-17T05:27:50.350Z,4.70
2023-02-17T05:30:17.456Z,4.80
2023-02-17T05:32:44.541Z,4.70
2023-02-17T05:35:12.034Z,4.70
2023-02-17T05:37:39.167Z,4.80
2023-02-17T05:40:06.931Z,4.80
2023-02-17T05:42:33.857Z,4.80
2023-02-17T05:45:00.834Z,4.70
2023-02-17T05:47:28.012Z,4.80
2023-02-17T05:49:55.147Z,4.80
2023-02-17T05:52:22.066Z,4.80
2023-02-17T05:54:49.071Z,4.80
2023-02-17T05:57:16.081Z,4.80
2023-02-17T05:59:43.029Z,4.80
2023-02-17T06:02:09.989Z,4.70
2023-02-17T06:04:37.098Z,4.70
2023-02-17T06:07:04.174Z,4.70
2023-02-17T06:09:31.216Z,4.70
2023-02-17T06:11:58.158Z,4.70
2023-02-17T06:14:25.093Z,4.70
2023-02-17T06:16:52.047Z,4.70
2023-02-17T06:19:18.997Z,4.70
2023-02-17T06:21:45.976Z,4.70
2023-02-17T06:24:12.926Z,4.70
2023-02-17T06:26:39.896Z,4.70
2023-02-17T06:29:07.565Z,4.70
2023-02-17T06:31:34.712Z,4.70
2023-02-17T06:34:01.787Z,4.70
2023-02-17T06:36:28.815Z,4.70
2023-02-17T06:38:55.883Z,4.70
2023-02-17T06:41:22.825Z,4.70
2023-02-17T06:43:49.774Z,4.70
2023-02-17T06:46:16.748Z,4.70
2023-02-17T06:48:43.678Z,4.70
2023-02-17T06:51:10.622Z,4.70
2023-02-17T06:53:38.277Z,4.70
2023-02-17T06:56:05.939Z,4.70
2023-02-17T06:58:35.421Z,4.80
2023-02-17T07:01:04.086Z,4.80
2023-02-17T07:03:32.287Z,4.80
2023-02-17T07:06:00.135Z,4.80
2023-02-17T07:08:27.108Z,4.80
2023-02-17T07:10:54.088Z,4.80
2023-02-17T07:13:21.060Z,4.90
2023-02-17T07:15:47.953Z,4.90
2023-02-17T07:18:14.947Z,5.00
2023-02-17T07:20:41.888Z,4.90
2023-02-17T07:23:08.910Z,5.00
2023-02-17T07:25:35.869Z,5.00
2023-02-17T07:28:02.781Z,5.00
2023-02-17T07:30:29.828Z,5.00
2023-02-17T07:32:57.232Z,5.00
2023-02-17T07:35:24.164Z,5.00
2023-02-17T07:37:51.752Z,5.00
2023-02-17T07:40:19.093Z,5.00
2023-02-17T07:42:46.080Z,5.10
2023-02-17T07:45:13.038Z,5.10
2023-02-17T07:47:40.008Z,5.10
2023-02-17T07:50:08.279Z,5.10
2023-02-17T07:52:35.223Z,5.10
2023-02-17T07:55:02.529Z,5.10
2023-02-17T07:57:30.594Z,5.10
2023-02-17T07:59:57.516Z,5.20
2023-02-17T08:02:24.716Z,5.10
2023-02-17T08:04:52.750Z,5.20
2023-02-17T08:07:19.960Z,5.20
2023-02-17T08:10:05.511Z,5.20
2023-02-17T08:12:50.838Z,5.20
2023-02-17T08:15:17.749Z,5.20
2023-02-17T08:17:44.767Z,5.20
2023-02-17T08:20:13.509Z,5.30
2023-02-17T08:22:40.549Z,5.30
2023-02-17T08:25:07.598Z,5.30
2023-02-17T08:27:34.602Z,5.30
2023-02-17T08:30:01.553Z,5.30
2023-02-17T08:32:28.678Z,5.30
2023-02-17T08:34:57.032Z,5.40
2023-02-17T08:37:24.486Z,5.40
2023-02-17T08:39:51.402Z,5.40
2023-02-17T08:42:18.405Z,5.40
2023-02-17T08:44:45.582Z,5.50
2023-02-17T08:47:12.714Z,5.50
2023-02-17T08:49:40.904Z,5.50
2023-02-17T08:52:08.347Z,5.50
2023-02-17T08:54:35.404Z,5.60
2023-02-17T08:57:02.408Z,5.60
2023-02-17T08:59:29.393Z,5.60
2023-02-17T09:01:56.984Z,5.70
2023-02-17T09:04:24.045Z,5.70
2023-02-17T09:06:53.839Z,5.70
2023-02-17T09:09:22.876Z,5.70
2023-02-17T09:11:49.897Z,5.70
2023-02-17T09:14:16.986Z,5.70
2023-02-17T09:16:43.983Z,5.70
2023-02-17T09:19:11.065Z,5.70
2023-02-17T09:21:38.163Z,5.70
2023-02-17T09:24:05.467Z,5.70
2023-02-17T09:26:35.224Z,5.70
2023-02-17T09:29:03.945Z,5.70
2023-02-17T09:31:31.808Z,5.80
2023-02-17T09:33:59.453Z,5.80
2023-02-17T09:36:29.931Z,5.90
2023-02-17T09:38:57.543Z,5.90
2023-02-17T09:41:39.545Z,6.00
2023-02-17T09:44:40.674Z,6.10
2023-02-17T09:47:22.450Z,6.00
2023-02-17T09:50:01.463Z,6.00
2023-02-17T09:52:39.243Z,5.90
2023-02-17T09:55:14.982Z,5.90
2023-02-17T09:57:58.931Z,6.00
2023-02-17T10:00:47.576Z,6.00
2023-02-17T10:03:22.649Z,5.90
2023-02-17T10:06:04.332Z,6.00
2023-02-17T10:08:38.902Z,5.90
2023-02-17T10:11:29.819Z,6.00
2023-02-17T10:14:02.758Z,6.00
2023-02-17T10:16:39.721Z,6.00
2023-02-17T10:19:26.148Z,5.90
2023-02-17T10:22:11.468Z,5.90
2023-02-17T10:24:38.592Z,6.00
2023-02-17T10:27:27.723Z,6.00
2023-02-17T10:30:21.117Z,6.00
2023-02-17T10:33:20.566Z,6.00
2023-02-17T10:35:52.522Z,6.00
2023-02-17T10:38:43.128Z,5.90
2023-02-17T10:41:15.892Z,5.90
2023-02-17T10:43:44.739Z,5.90
2023-02-17T10:46:14.485Z,5.90
2023-02-17T10:48:47.164Z,5.80
2023-02-17T10:51:17.058Z,5.70
2023-02-17T10:53:48.291Z,5.70
2023-02-17T10:56:21.536Z,5.70
2023-02-17T10:58:51.286Z,5.70
2023-02-17T11:01:18.438Z,5.70
2023-02-17T11:03:45.623Z,5.70
2023-02-17T11:06:17.893Z,5.70
2023-02-17T11:08:50.821Z,5.60
2023-02-17T11:11:24.080Z,5.50
2023-02-17T11:14:22.113Z,5.60
2023-02-17T11:16:59.333Z,5.50
2023-02-17T11:19:34.683Z,5.50
2023-02-17T11:22:05.497Z,5.40
2023-02-17T11:24:35.534Z,5.50
2023-02-17T11:27:11.260Z,5.40
2023-02-17T11:29:38.517Z,5.50
2023-02-17T11:32:09.089Z,5.40
2023-02-17T11:34:38.990Z,5.40
2023-02-17T11:37:11.800Z,5.30
2023-02-17T11:39:41.913Z,5.20
2023-02-17T11:42:21.778Z,5.20
2023-02-17T11:44:49.630Z,5.20
2023-02-17T11:47:28.756Z,5.20
2023-02-17T11:49:58.762Z,5.20
2023-02-17T11:52:38.988Z,5.10
2023-02-17T11:55:27.890Z,5.10
2023-02-17T11:58:21.831Z,5.10
2023-02-17T12:01:06.621Z,5.10
2023-02-17T12:04:00.611Z,5.00
2023-02-17T12:06:48.792Z,5.00
2023-02-17T12:09:48.711Z,5.10
2023-02-17T12:12:41.344Z,5.00
2023-02-17T12:15:31.537Z,5.00
2023-02-17T12:18:20.667Z,5.00
2023-02-17T12:20:50.627Z,5.10
2023-02-17T12:23:55.237Z,5.00
2023-02-17T12:26:39.731Z,5.00
2023-02-17T12:29:30.825Z,5.00
2023-02-17T12:32:19.114Z,5.00
2023-02-17T12:35:03.868Z,4.90
2023-02-17T12:37:42.029Z,4.90
2023-02-17T12:40:21.610Z,4.90
2023-02-17T12:42:57.898Z,4.90
2023-02-17T12:45:40.972Z,4.90
2023-02-17T12:48:23.057Z,4.90
2023-02-17T12:50:56.372Z,4.90
2023-02-17T12:53:43.375Z,4.90
2023-02-17T12:56:25.422Z,4.90
2023-02-17T12:58:56.404Z,4.80
2023-02-17T13:01:29.420Z,4.80
2023-02-17T13:04:00.117Z,4.80
2023-02-17T13:06:52.480Z,4.80
2023-02-17T13:09:31.977Z,4.80
2023-02-17T13:12:22.772Z,4.70
2023-02-17T13:14:55.304Z,4.70
2023-02-17T13:17:29.723Z,4.70
2023-02-17T13:20:10.543Z,4.60
2023-02-17T13:22:42.627Z,4.50
2023-02-17T13:25:25.969Z,4.60
2023-02-17T13:27:53.195Z,4.50
2023-02-17T13:30:24.623Z,4.50
2023-02-17T13:33:20.482Z,4.50
2023-02-17T13:35:48.081Z,4.40
2023-02-17T13:38:27.203Z,4.50
2023-02-17T13:40:59.998Z,4.40
2023-02-17T13:43:29.719Z,4.40
2023-02-17T13:46:02.682Z,4.40
2023-02-17T13:48:34.579Z,4.40
2023-02-17T13:51:02.705Z,4.30
2023-02-17T13:53:37.924Z,4.30
2023-02-17T13:56:23.313Z,4.30
2023-02-17T13:58:50.568Z,4.30
2023-02-17T14:01:22.489Z,4.30
2023-02-17T14:03:52.494Z,4.30
2023-02-17T14:06:36.020Z,4.30
2023-02-17T14:09:23.114Z,4.20
2023-02-17T14:11:51.735Z,4.20
2023-02-17T14:14:19.060Z,4.20
2023-02-17T14:16:55.655Z,4.20
2023-02-17T14:19:22.806Z,4.20
2023-02-17T14:22:04.351Z,4.20
2023-02-17T14:24:35.711Z,4.20
2023-02-17T14:27:08.847Z,4.20
2023-02-17T14:29:40.391Z,4.20
2023-02-17T14:32:25.709Z,4.20
2023-02-17T14:34:52.899Z,4.10
2023-02-17T14:37:24.445Z,4.10
2023-02-17T14:39:51.443Z,4.10
2023-02-17T14:42:18.439Z,4.10
2023-02-17T14:44:45.589Z,4.10
2023-02-17T14:47:12.522Z,4.10
2023-02-17T14:49:39.433Z,4.10
2023-02-17T14:52:22.262Z,4.10
2023-02-17T14:54:49.447Z,4.10
2023-02-17T14:57:17.550Z,4.10
2023-02-17T14:59:44.800Z,4.10
2023-02-17T15:02:20.358Z,4.10
2023-02-17T15:04:47.443Z,4.10
2023-02-17T15:07:18.886Z,4.20
2023-02-17T15:09:48.281Z,4.10
2023-02-17T15:12:20.831Z,4.20
2023-02-17T15:14:48.540Z,4.20
2023-02-17T15:17:16.472Z,4.20
2023-02-17T15:19:44.943Z,4.20
2023-02-17T15:22:15.079Z,4.20
2023-02-17T15:24:42.139Z,4.20
2023-02-17T15:27:14.005Z,4.20
2023-02-17T15:29:40.979Z,4.20
2023-02-17T15:32:16.884Z,4.20
2023-02-17T15:34:44.797Z,4.20
2023-02-17T15:37:11.855Z,4.30
2023-02-17T15:39:38.820Z,4.30
2023-02-17T15:42:12.982Z,4.30
2023-02-17T15:44:50.573Z,4.30
2023-02-17T15:47:19.962Z,4.30
2023-02-17T15:49:47.326Z,4.30
2023-02-17T15:52:14.830Z,4.30
2023-02-17T15:54:42.799Z,4.30
2023-02-17T15:57:23.447Z,4.30
2023-02-17T15:59:51.268Z,4.30
2023-02-17T16:02:23.678Z,4.40
2023-02-17T16:04:50.605Z,4.40
2023-02-17T16:07:17.659Z,4.40
2023-02-17T16:09:44.653Z,4.40
2023-02-17T16:12:26.996Z,4.40
2023-02-17T16:14:55.288Z,4.40
2023-02-17T16:17:22.384Z,4.50
2023-02-17T16:19:49.339Z,4.50
2023-02-17T16:22:16.281Z,4.50
2023-02-17T16:24:43.255Z,4.50
2023-02-17T16:27:15.780Z,4.50
2023-02-17T16:29:43.491Z,4.60
2023-02-17T16:32:14.241Z,4.60
2023-02-17T16:34:41.906Z,4.60
2023-02-17T16:37:15.778Z,4.60
2023-02-17T16:39:43.568Z,4.60
2023-02-17T16:42:12.314Z,4.60
2023-02-17T16:44:39.497Z,4.60
2023-02-17T16:47:08.174Z,4.70
2023-02-17T16:49:39.834Z,4.70
2023-02-17T16:52:18.827Z,4.70
2023-02-17T16:54:45.786Z,4.70
2023-02-17T16:57:22.519Z,4.70
2023-02-17T16:59:49.619Z,4.70
2023-02-17T17:02:17.207Z,4.70
2023-02-17T17:04:44.254Z,4.70
2023-02-17T17:07:14.188Z,4.70
2023-02-17T17:09:43.044Z,4.70
2023-02-17T17:12:12.027Z,4.70
2023-02-17T17:14:39.384Z,4.80
2023-02-17T17:17:06.349Z,4.70
2023-02-17T17:19:33.262Z,4.70
2023-02-17T17:22:00.421Z,4.80
2023-02-17T17:24:27.390Z,4.80
2023-02-17T17:26:55.897Z,4.80
2023-02-17T17:29:23.043Z,4.80
2023-02-17T17:31:50.141Z,4.80
2023-02-17T17:34:17.252Z,4.80
2023-02-17T17:36:47.119Z,4.80
2023-02-17T17:39:17.191Z,4.80
2023-02-17T17:41:44.579Z,4.80
2023-02-17T17:44:11.614Z,4.80
2023-02-17T17:46:39.788Z,4.80
2023-02-17T17:49:10.255Z,4.80
2023-02-17T17:51:38.280Z,4.90
2023-02-17T17:54:06.247Z,4.80
2023-02-17T17:56:36.100Z,4.80
2023-02-17T17:59:04.195Z,4.90
2023-02-17T18:01:31.949Z,4.90
2023-02-17T18:04:00.270Z,4.90
2023-02-17T18:06:33.039Z,4.90
2023-02-17T18:09:03.684Z,4.80
2023-02-17T18:11:32.076Z,4.90
2023-02-17T18:14:02.665Z,4.90
2023-02-17T18:16:32.058Z,4.90
2023-02-17T18:19:01.025Z,4.90
2023-02-17T18:21:28.231Z,4.90
2023-02-17T18:23:55.183Z,4.90
2023-02-17T18:26:22.146Z,4.90
2023-02-17T18:28:49.143Z,5.00
2023-02-17T18:31:17.449Z,5.00
2023-02-17T18:33:44.492Z,5.00
2023-02-17T18:36:15.347Z,5.00
2023-02-17T18:38:43.931Z,5.00
2023-02-17T18:41:24.163Z,5.00
2023-02-17T18:43:51.795Z,5.00
2023-02-17T18:46:19.245Z,5.10
2023-02-17T18:48:46.485Z,5.10
2023-02-17T18:51:16.755Z,5.10
2023-02-17T18:53:43.813Z,5.10
2023-02-17T18:56:16.512Z,5.10
2023-02-17T18:58:43.456Z,5.10
2023-02-17T19:01:25.979Z,5.10
2023-02-17T19:03:53.801Z,5.10
2023-02-17T19:06:24.628Z,5.10
2023-02-17T19:08:52.509Z,5.10
2023-02-17T19:11:21.551Z,5.10
2023-02-17T19:13:49.436Z,5.10
2023-02-17T19:16:19.345Z,5.10
2023-02-17T19:18:47.330Z,5.10
2023-02-17T19:21:14.844Z,5.20
2023-02-17T19:23:42.601Z,5.10
2023-02-17T19:26:11.086Z,5.20
2023-02-17T19:28:39.291Z,5.20
2023-02-17T19:31:15.357Z,5.20
2023-02-17T19:33:43.107Z,5.20
2023-02-17T19:36:16.084Z,5.20
2023-02-17T19:38:43.330Z,5.20
2023-02-17T19:41:11.849Z,5.20
2023-02-17T19:43:39.247Z,5.20
2023-02-17T19:46:06.753Z,5.20
2023-02-17T19:48:34.530Z,5.20
2023-02-17T19:51:04.663Z,5.20
2023-02-17T19:53:33.152Z,5.20
2023-02-17T19:56:11.734Z,5.20
2023-02-17T19:58:40.491Z,5.30
2023-02-17T20:01:10.026Z,5.30
2023-02-17T20:03:37.647Z,5.30
2023-02-17T20:06:26.170Z,5.30
2023-02-17T20:08:57.861Z,5.30
2023-02-17T20:11:25.447Z,5.30
2023-02-17T20:13:52.449Z,5.30
2023-02-17T20:16:19.883Z,5.30
2023-02-17T20:18:49.231Z,5.30
2023-02-17T20:21:19.684Z,5.30
2023-02-17T20:23:46.993Z,5.30
2023-02-17T20:26:17.299Z,5.40
2023-02-17T20:28:44.222Z,5.40
2023-02-17T20:31:12.250Z,5.40
2023-02-17T20:33:39.691Z,5.40
2023-02-17T20:36:07.859Z,5.40
2023-02-17T20:38:37.475Z,5.40
2023-02-17T20:41:06.669Z,5.40
2023-02-17T20:43:34.513Z,5.40
2023-02-17T20:46:01.702Z,5.50
2023-02-17T20:48:28.811Z,5.50
2023-02-17T20:50:56.944Z,5.40
2023-02-17T20:53:25.042Z,5.50
2023-02-17T20:55:52.487Z,5.50
2023-02-17T20:58:20.067Z,5.50
2023-02-17T21:00:47.503Z,5.50
2023-02-17T21:03:14.948Z,5.50
2023-02-17T21:05:41.940Z,5.60
2023-02-17T21:08:09.139Z,5.60
2023-02-17T21:10:36.149Z,5.60
2023-02-17T21:13:03.172Z,5.60
2023-02-17T21:15:30.086Z,5.60
2023-02-17T21:17:57.065Z,5.60
2023-02-17T21:20:24.678Z,5.60
2023-02-17T21:22:51.934Z,5.60
2023-02-17T21:25:19.141Z,5.60
2023-02-17T21:27:46.147Z,5.60
2023-02-17T21:30:13.861Z,5.60
2023-02-17T21:32:41.265Z,5.60
2023-02-17T21:35:12.224Z,5.60
2023-02-17T21:37:40.207Z,5.60
2023-02-17T21:40:08.396Z,5.70
2023-02-17T21:42:56.264Z,5.70
2023-02-17T21:45:24.104Z,5.70
2023-02-17T21:47:51.262Z,5.70
2023-02-17T21:50:18.837Z,5.70
2023-02-17T21:52:45.784Z,5.70
2023-02-17T21:55:12.791Z,5.70
2023-02-17T21:57:39.700Z,5.70
2023-02-17T22:00:08.838Z,5.70
2023-02-17T22:02:36.411Z,5.70
2023-02-17T22:05:04.157Z,5.70
2023-02-17T22:07:31.136Z,5.70
2023-02-17T22:09:59.701Z,5.70
2023-02-17T22:12:26.875Z,5.70
2023-02-17T22:14:53.815Z,5.70
2023-02-17T22:17:20.830Z,5.70
2023-02-17T22:19:47.756Z,5.70
2023-02-17T22:22:14.756Z,5.60
2023-02-17T22:24:42.965Z,5.70
2023-02-17T22:27:09.896Z,5.70
2023-02-17T22:29:36.883Z,5.70
2023-02-17T22:32:04.542Z,5.70
2023-02-17T22:34:31.569Z,5.70
2023-02-17T22:36:58.562Z,5.70
2023-02-17T22:39:25.767Z,5.70
2023-02-17T22:41:52.714Z,5.70
2023-02-17T22:44:19.670Z,5.70
2023-02-17T22:46:46.675Z,5.70
2023-02-17T22:49:13.629Z,5.70
2023-02-17T22:51:41.026Z,5.70
2023-02-17T22:54:08.421Z,5.70
2023-02-17T22:56:36.090Z,5.70
2023-02-17T22:59:04.408Z,5.80
2023-02-17T23:01:33.690Z,5.70
2023-02-17T23:04:01.317Z,5.70
2023-02-17T23:06:31.998Z,5.70
2023-02-17T23:09:00.232Z,5.80
2023-02-17T23:11:49.279Z,5.80
2023-02-17T23:14:22.446Z,5.80
2023-02-17T23:16:49.718Z,5.80
2023-02-17T23:19:19.536Z,5.80
2023-02-17T23:21:52.060Z,5.80
2023-02-17T23:24:20.123Z,5.80
2023-02-17T23:26:48.185Z,5.80
2023-02-17T23:29:15.999Z,5.80
2023-02-17T23:31:43.365Z,5.80
2023-02-17T23:34:12.760Z,5.80
2023-02-17T23:36:40.870Z,5.80
2023-02-17T23:39:08.571Z,5.80
2023-02-17T23:41:36.993Z,5.80
2023-02-17T23:44:04.984Z,5.80
2023-02-17T23:46:31.976Z,5.80
2023-02-17T23:48:59.022Z,5.80
2023-02-17T23:51:26.410Z,5.80
2023-02-17T23:53:53.356Z,5.80
2023-02-17T23:56:26.473Z,5.80
2023-02-17T23:58:54.267Z,5.80
